createdAt,value
2019-04-28T00:01:11.331Z,100306.59
2019-04-28T00:03:39.558Z,100309.02
2019-04-28T00:06:07.722Z,100309.34
2019-04-28T00:08:35.878Z,100311.41
2019-04-28T00:11:04.135Z,100314.64
2019-04-28T00:13:32.304Z,100313.39
2019-04-28T00:16:01.650Z,100317.41
2019-04-28T00:18:31.710Z,100318.86
2019-04-28T00:21:24.738Z,100314.94
2019-04-28T00:24:11.880Z,100318.86
2019-04-28T00:26:53.371Z,100316.17
2019-04-28T00:29:21.595Z,100322.31
2019-04-28T00:31:51.287Z,100322.33
2019-04-28T00:34:21.282Z,100320.76
2019-04-28T00:36:53.930Z,100321.87
2019-04-28T00:39:22.757Z,100322.37
2019-04-28T00:41:51.656Z,100325.48
2019-04-28T00:44:21.769Z,100326.20
2019-04-28T00:46:51.192Z,100322.23
2019-04-28T00:49:38.477Z,100316.29
2019-04-28T00:52:06.651Z,100313.72
2019-04-28T00:54:34.930Z,100317.27
2019-04-28T00:57:03.109Z,100315.97
2019-04-28T00:59:31.639Z,100323.94
2019-04-28T01:02:02.687Z,100325.05
2019-04-28T01:04:32.710Z,100328.77
2019-04-28T01:07:01.620Z,100319.70
2019-04-28T01:09:31.560Z,100328.67
2019-04-28T01:12:01.789Z,100327.61
2019-04-28T01:14:30.993Z,100326.47
2019-04-28T01:17:09.787Z,100327.16
2019-04-28T01:19:39.963Z,100329.30
2019-04-28T01:22:11.936Z,100330.04
2019-04-28T01:24:40.589Z,100326.03
2019-04-28T01:27:15.385Z,100325.30
2019-04-28T01:29:43.521Z,100321.73
2019-04-28T01:32:24.269Z,100321.83
2019-04-28T01:34:52.401Z,100326.33
2019-04-28T01:37:20.517Z,100327.28
2019-04-28T01:39:49.612Z,100330.55
2019-04-28T01:42:17.871Z,100330.20
2019-04-28T01:44:46.086Z,100333.37
2019-04-28T01:47:14.197Z,100336.81
2019-04-28T01:49:42.401Z,100343.14
2019-04-28T01:52:10.577Z,100344.73
2019-04-28T01:54:40.320Z,100347.52
2019-04-28T01:57:10.119Z,100348.08
2019-04-28T01:59:40.273Z,100348.71
2019-04-28T02:02:10.156Z,100351.23
2019-04-28T02:04:40.162Z,100345.06
2019-04-28T02:07:10.889Z,100353.11
2019-04-28T02:09:39.564Z,100357.57
2019-04-28T02:12:07.953Z,100356.52
2019-04-28T02:14:36.075Z,100364.61
2019-04-28T02:17:04.331Z,100360.27
2019-04-28T02:19:33.039Z,100359.92
2019-04-28T02:22:20.264Z,100363.59
2019-04-28T02:24:50.380Z,100365.89
2019-04-28T02:27:20.253Z,100360.67
2019-04-28T02:29:49.856Z,100364.20
2019-04-28T02:32:23.863Z,100362.48
2019-04-28T02:34:49.873Z,100359.52
2019-04-28T02:37:20.230Z,100365.41
2019-04-28T02:39:50.236Z,100367.05
2019-04-28T02:42:20.601Z,100363.98
2019-04-28T02:44:50.263Z,100367.12
2019-04-28T02:47:17.520Z,100370.86
2019-04-28T02:50:00.951Z,100369.78
2019-04-28T02:52:46.906Z,100366.01
2019-04-28T02:55:15.041Z,100368.45
2019-04-28T02:57:43.233Z,100368.39
2019-04-28T03:00:11.344Z,100368.83
2019-04-28T03:02:41.481Z,100369.06
2019-04-28T03:05:11.538Z,100373.18
2019-04-28T03:07:40.974Z,100372.74
2019-04-28T03:10:11.037Z,100376.66
2019-04-28T03:12:41.445Z,100370.98
2019-04-28T03:15:10.366Z,100378.52
2019-04-28T03:17:40.655Z,100375.91
2019-04-28T03:20:10.922Z,100378.59
2019-04-28T03:22:40.831Z,100379.38
2019-04-28T03:25:12.325Z,100382.02
2019-04-28T03:27:50.969Z,100380.09
2019-04-28T03:30:38.199Z,100380.86
2019-04-28T03:33:13.302Z,100388.16
2019-04-28T03:35:37.234Z,100389.16
2019-04-28T03:38:05.366Z,100390.78
2019-04-28T03:40:33.895Z,100383.59
2019-04-28T03:43:03.114Z,100386.17
2019-04-28T03:45:37.112Z,100396.45
2019-04-28T03:48:05.291Z,100384.70
2019-04-28T03:50:33.421Z,100390.52
2019-04-28T03:53:01.601Z,100391.92
2019-04-28T03:55:34.483Z,100397.45
2019-04-28T03:58:00.928Z,100393.09
2019-04-28T04:00:31.197Z,100398.70
2019-04-28T04:03:00.850Z,100398.70
2019-04-28T04:05:30.662Z,100400.03
2019-04-28T04:08:00.840Z,100402.03
2019-04-28T04:10:44.046Z,100400.52
2019-04-28T04:16:16.576Z,100402.32
2019-04-28T04:18:47.128Z,100405.36
2019-04-28T04:21:15.232Z,100406.30
2019-04-28T04:23:43.346Z,100405.95
2019-04-28T04:26:11.953Z,100405.83
2019-04-28T04:28:41.631Z,100415.69
2019-04-28T04:31:10.544Z,100420.21
2019-04-28T04:33:41.114Z,100419.97
2019-04-28T04:36:11.611Z,100425.15
2019-04-28T04:38:43.314Z,100421.91
2019-04-28T04:41:11.252Z,100425.05
2019-04-28T04:43:41.558Z,100428.20
2019-04-28T04:46:22.145Z,100430.27
2019-04-28T04:48:50.724Z,100436.58
2019-04-28T04:51:21.240Z,100433.52
2019-04-28T04:53:51.030Z,100437.98
2019-04-28T04:56:21.117Z,100434.22
2019-04-28T04:58:50.459Z,100441.53
2019-04-28T05:01:30.413Z,100438.30
2019-04-28T05:04:02.940Z,100447.30
2019-04-28T05:06:50.034Z,100448.91
2019-04-28T05:09:19.638Z,100452.33
2019-04-28T05:11:49.774Z,100459.81
2019-04-28T05:14:19.895Z,100457.09
2019-04-28T05:16:49.701Z,100456.25
2019-04-28T05:19:19.451Z,100464.24
2019-04-28T05:21:49.685Z,100466.25
2019-04-28T05:24:36.765Z,100468.44
2019-04-28T05:27:05.447Z,100470.95
2019-04-28T05:29:33.613Z,100470.48
2019-04-28T05:32:03.270Z,100471.70
2019-04-28T05:34:31.669Z,100466.44
2019-04-28T05:37:00.728Z,100476.80
2019-04-28T05:39:29.800Z,100474.71
2019-04-28T05:41:58.071Z,100483.73
2019-04-28T05:44:26.229Z,100475.49
2019-04-28T05:46:54.473Z,100481.97
2019-04-28T05:49:56.639Z,100476.97
2019-04-28T05:53:02.251Z,100485.67
2019-04-28T05:55:41.741Z,100489.38
2019-04-28T05:58:23.458Z,100494.20
2019-04-28T06:01:06.790Z,100491.41
2019-04-28T06:03:34.939Z,100493.55
2019-04-28T06:06:03.187Z,100498.00
2019-04-28T06:08:52.873Z,100499.80
2019-04-28T06:11:35.063Z,100503.42
2019-04-28T06:14:03.214Z,100504.47
2019-04-28T06:16:31.543Z,100501.34
2019-04-28T06:19:00.188Z,100506.14
2019-04-28T06:21:28.636Z,100509.75
2019-04-28T06:23:56.823Z,100512.80
2019-04-28T06:26:24.985Z,100513.09
2019-04-28T06:28:53.159Z,100507.84
2019-04-28T06:31:21.330Z,100512.96
2019-04-28T06:33:49.504Z,100513.03
2019-04-28T06:36:17.718Z,100513.39
2019-04-28T06:38:45.876Z,100519.70
2019-04-28T06:41:13.970Z,100522.19
2019-04-28T06:43:42.153Z,100517.43
2019-04-28T06:46:10.330Z,100522.70
2019-04-28T06:48:38.900Z,100521.34
2019-04-28T06:51:07.034Z,100527.05
2019-04-28T06:53:35.223Z,100521.93
2019-04-28T06:56:03.447Z,100521.03
2019-04-28T06:58:31.846Z,100522.67
2019-04-28T07:00:59.955Z,100532.31
2019-04-28T07:03:28.229Z,100525.70
2019-04-28T07:05:56.376Z,100525.95
2019-04-28T07:08:24.500Z,100525.95
2019-04-28T07:10:52.666Z,100528.16
2019-04-28T07:13:20.831Z,100525.19
2019-04-28T07:15:49.244Z,100529.98
2019-04-28T07:18:17.463Z,100535.33
2019-04-28T07:21:00.781Z,100525.22
2019-04-28T07:23:29.145Z,100529.94
2019-04-28T07:25:57.314Z,100527.94
2019-04-28T07:28:25.558Z,100528.52
2019-04-28T07:30:53.730Z,100533.94
2019-04-28T07:33:21.864Z,100530.22
2019-04-28T07:35:50.060Z,100537.26
2019-04-28T07:38:18.309Z,100538.00
2019-04-28T07:40:46.546Z,100543.07
2019-04-28T07:43:14.701Z,100546.53
2019-04-28T07:45:42.859Z,100541.20
2019-04-28T07:48:11.049Z,100549.49
2019-04-28T07:50:39.212Z,100551.70
2019-04-28T07:53:31.676Z,100552.75
2019-04-28T07:55:59.928Z,100556.53
2019-04-28T07:58:28.064Z,100555.63
2019-04-28T08:00:56.272Z,100553.69
2019-04-28T08:03:24.473Z,100556.48
2019-04-28T08:05:52.760Z,100558.30
2019-04-28T08:08:20.948Z,100558.81
2019-04-28T08:10:49.092Z,100562.67
2019-04-28T08:13:17.286Z,100561.86
2019-04-28T08:15:45.458Z,100570.38
2019-04-28T08:18:13.642Z,100565.52
2019-04-28T08:20:41.810Z,100564.86
2019-04-28T08:23:10.010Z,100573.41
2019-04-28T08:25:38.201Z,100579.35
2019-04-28T08:28:06.490Z,100578.26
2019-04-28T08:30:35.152Z,100577.44
2019-04-28T08:33:09.792Z,100589.73
2019-04-28T08:35:37.942Z,100584.03
2019-04-28T08:38:06.144Z,100584.54
2019-04-28T08:40:34.426Z,100593.77
2019-04-28T08:43:02.592Z,100593.08
2019-04-28T08:45:30.860Z,100596.67
2019-04-28T08:47:59.131Z,100601.16
2019-04-28T08:50:27.253Z,100601.28
2019-04-28T08:52:55.655Z,100599.17
2019-04-28T08:55:23.877Z,100604.25
2019-04-28T08:57:52.126Z,100602.06
2019-04-28T09:00:21.604Z,100604.59
2019-04-28T09:02:49.804Z,100602.64
2019-04-28T09:05:17.982Z,100612.25
2019-04-28T09:07:46.150Z,100614.17
2019-04-28T09:10:14.445Z,100605.54
2019-04-28T09:12:42.611Z,100608.13
2019-04-28T09:15:10.886Z,100614.72
2019-04-28T09:17:39.099Z,100608.41
2019-04-28T09:20:07.406Z,100615.28
2019-04-28T09:22:35.576Z,100622.30
2019-04-28T09:25:03.777Z,100625.50
2019-04-28T09:27:32.041Z,100621.97
2019-04-28T09:30:00.180Z,100621.44
2019-04-28T09:32:28.413Z,100625.27
2019-04-28T09:34:56.827Z,100621.25
2019-04-28T09:37:25.049Z,100622.33
2019-04-28T09:40:04.353Z,100629.78
2019-04-28T09:42:50.165Z,100629.37
2019-04-28T09:45:21.381Z,100628.93
2019-04-28T09:47:49.568Z,100632.63
2019-04-28T09:50:17.760Z,100631.67
2019-04-28T09:52:48.640Z,100628.89
2019-04-28T09:55:15.797Z,100633.36
2019-04-28T09:57:43.913Z,100621.55
2019-04-28T10:00:12.282Z,100623.09
2019-04-28T10:02:40.435Z,100623.43
2019-04-28T10:05:10.125Z,100620.72
2019-04-28T10:07:38.255Z,100629.88
2019-04-28T10:10:07.099Z,100628.64
2019-04-28T10:12:35.273Z,100627.50
2019-04-28T10:15:03.458Z,100620.63
2019-04-28T10:17:31.658Z,100620.80
2019-04-28T10:19:59.851Z,100625.92
2019-04-28T10:22:28.020Z,100631.07
2019-04-28T10:24:56.177Z,100628.58
2019-04-28T10:27:24.290Z,100621.66
2019-04-28T10:29:52.641Z,100633.28
2019-04-28T10:32:20.814Z,100628.02
2019-04-28T10:34:55.060Z,100627.61
2019-04-28T10:37:18.885Z,100622.03
2019-04-28T10:40:00.245Z,100631.14
2019-04-28T10:42:28.465Z,100633.35
2019-04-28T10:44:56.622Z,100639.99
2019-04-28T10:47:24.770Z,100639.13
2019-04-28T10:49:52.932Z,100636.89
2019-04-28T10:52:21.038Z,100642.76
2019-04-28T10:54:49.229Z,100643.16
2019-04-28T10:57:17.363Z,100657.63
2019-04-28T10:59:45.567Z,100652.27
2019-04-28T11:02:13.810Z,100667.13
2019-04-28T11:04:47.036Z,100668.26
2019-04-28T11:07:15.593Z,100673.75
2019-04-28T11:09:48.199Z,100678.20
2019-04-28T11:12:23.942Z,100678.34
2019-04-28T11:14:52.166Z,100682.39
2019-04-28T11:17:20.338Z,100685.31
2019-04-28T11:19:48.591Z,100691.81
2019-04-28T11:22:16.818Z,100689.55
2019-04-28T11:24:45.229Z,100691.67
2019-04-28T11:27:14.752Z,100695.45
2019-04-28T11:29:43.068Z,100701.38
2019-04-28T11:32:11.324Z,100701.22
2019-04-28T11:34:51.524Z,100697.15
2019-04-28T11:37:19.814Z,100702.55
2019-04-28T11:39:48.015Z,100705.39
2019-04-28T11:42:16.350Z,100706.36
2019-04-28T11:44:44.619Z,100703.08
2019-04-28T11:47:15.488Z,100702.56
2019-04-28T11:49:43.716Z,100695.41
2019-04-28T11:52:12.034Z,100702.47
2019-04-28T11:54:40.162Z,100697.91
2019-04-28T11:57:08.470Z,100700.40
2019-04-28T11:59:36.866Z,100700.66
2019-04-28T12:02:05.650Z,100707.58
2019-04-28T12:04:33.984Z,100697.70
2019-04-28T12:07:02.200Z,100700.47
2019-04-28T12:09:38.246Z,100699.59
2019-04-28T12:12:10.010Z,100703.64
2019-04-28T12:14:49.707Z,100708.28
2019-04-28T12:17:36.839Z,100702.69
2019-04-28T12:20:16.543Z,100702.78
2019-04-28T12:22:44.704Z,100709.30
2019-04-28T12:25:12.933Z,100714.94
2019-04-28T12:27:41.153Z,100710.14
2019-04-28T12:30:09.686Z,100712.95
2019-04-28T12:32:37.933Z,100714.77
2019-04-28T12:35:06.368Z,100711.77
2019-04-28T12:37:34.598Z,100726.88
2019-04-28T12:40:02.877Z,100735.98
2019-04-28T12:42:31.074Z,100742.52
2019-04-28T12:44:59.256Z,100742.98
2019-04-28T12:47:27.495Z,100736.77
2019-04-28T12:50:00.558Z,100742.99
2019-04-28T12:52:28.756Z,100745.48
2019-04-28T12:54:56.997Z,100744.86
2019-04-28T12:57:25.262Z,100748.47
2019-04-28T12:59:58.912Z,100750.25
2019-04-28T13:02:46.105Z,100754.12
2019-04-28T13:05:15.310Z,100749.17
2019-04-28T13:07:43.535Z,100749.33
2019-04-28T13:10:11.843Z,100748.58
2019-04-28T13:12:40.098Z,100753.58
2019-04-28T13:15:08.226Z,100761.75
2019-04-28T13:17:36.367Z,100763.16
2019-04-28T13:20:04.722Z,100767.07
2019-04-28T13:22:32.911Z,100763.00
2019-04-28T13:25:01.967Z,100763.36
2019-04-28T13:27:30.230Z,100759.69
2019-04-28T13:29:58.432Z,100761.63
2019-04-28T13:32:26.577Z,100761.44
2019-04-28T13:34:54.891Z,100763.06
2019-04-28T13:37:23.105Z,100755.20
2019-04-28T13:39:58.395Z,100753.16
2019-04-28T13:42:26.679Z,100757.42
2019-04-28T13:45:03.792Z,100754.64
2019-04-28T13:47:32.010Z,100751.12
2019-04-28T13:50:05.913Z,100742.95
2019-04-28T13:52:34.075Z,100742.95
2019-04-28T13:55:22.997Z,100751.91
2019-04-28T13:57:51.167Z,100746.59
2019-04-28T14:00:21.633Z,100752.91
2019-04-28T14:02:55.981Z,100749.02
2019-04-28T14:05:47.411Z,100741.04
2019-04-28T14:08:16.967Z,100757.31
2019-04-28T14:10:45.129Z,100757.31
2019-04-28T14:13:13.445Z,100760.48
2019-04-28T14:15:41.730Z,100758.19
2019-04-28T14:18:09.976Z,100757.96
2019-04-28T14:20:38.161Z,100766.13
2019-04-28T14:23:06.333Z,100763.55
2019-04-28T14:25:34.470Z,100759.94
2019-04-28T14:28:02.837Z,100766.16
2019-04-28T14:30:31.129Z,100763.40
2019-04-28T14:32:59.378Z,100767.75
2019-04-28T14:35:27.559Z,100767.92
2019-04-28T14:37:55.797Z,100761.67
2019-04-28T14:40:24.044Z,100766.16
2019-04-28T14:42:52.215Z,100761.93
2019-04-28T14:45:20.363Z,100766.34
2019-04-28T14:47:48.547Z,100760.24
2019-04-28T14:50:16.881Z,100766.37
2019-04-28T14:52:45.012Z,100768.22
2019-04-28T14:55:13.363Z,100762.75
2019-04-28T14:57:41.477Z,100766.45
2019-04-28T15:00:11.908Z,100762.64
2019-04-28T15:02:49.018Z,100762.64
2019-04-28T15:05:34.549Z,100771.39
2019-04-28T15:08:20.559Z,100771.34
2019-04-28T15:11:11.185Z,100767.73
2019-04-28T15:13:39.356Z,100765.91
2019-04-28T15:16:08.006Z,100768.69
2019-04-28T15:18:36.157Z,100772.92
2019-04-28T15:21:04.497Z,100760.38
2019-04-28T15:23:32.638Z,100768.66
2019-04-28T15:26:00.763Z,100771.60
2019-04-28T15:28:28.996Z,100767.64
2019-04-28T15:30:57.215Z,100767.64
2019-04-28T15:33:25.392Z,100773.03
2019-04-28T15:35:53.592Z,100765.16
2019-04-28T15:38:21.817Z,100774.07
2019-04-28T15:40:49.974Z,100774.07
2019-04-28T15:43:20.894Z,100772.00
2019-04-28T15:45:49.070Z,100767.94
2019-04-28T15:48:20.320Z,100770.16
2019-04-28T15:50:48.470Z,100768.80
2019-04-28T15:53:18.280Z,100768.55
2019-04-28T15:55:56.472Z,100761.46
2019-04-28T15:58:34.754Z,100780.81
2019-04-28T16:01:02.976Z,100780.81
2019-04-28T16:03:31.172Z,100774.46
2019-04-28T16:06:00.070Z,100780.55
2019-04-28T16:08:28.438Z,100781.15
2019-04-28T16:10:56.666Z,100783.73
2019-04-28T16:13:24.883Z,100777.33
2019-04-28T16:15:53.164Z,100776.42
2019-04-28T16:18:21.316Z,100779.48
2019-04-28T16:20:49.769Z,100781.80
2019-04-28T16:23:17.910Z,100776.14
2019-04-28T16:25:46.140Z,100780.66
2019-04-28T16:28:14.282Z,100774.38
2019-04-28T16:30:42.504Z,100781.79
2019-04-28T16:33:11.006Z,100786.82
2019-04-28T16:35:39.160Z,100783.37
2019-04-28T16:38:07.352Z,100785.28
2019-04-28T16:41:02.016Z,100793.95
2019-04-28T16:43:46.296Z,100797.50
2019-04-28T16:46:14.418Z,100796.78
2019-04-28T16:48:42.687Z,100796.27
2019-04-28T16:51:11.197Z,100796.61
2019-04-28T16:53:39.341Z,100798.19
2019-04-28T16:56:31.025Z,100798.84
2019-04-28T16:59:27.253Z,100803.37
2019-04-28T17:02:05.362Z,100804.52
2019-04-28T17:04:33.524Z,100808.04
2019-04-28T17:07:01.735Z,100798.92
2019-04-28T17:09:29.932Z,100796.56
2019-04-28T17:11:58.137Z,100797.88
2019-04-28T17:14:26.310Z,100800.58
2019-04-28T17:16:54.436Z,100719.42
2019-04-28T17:19:22.636Z,100806.37
2019-04-28T17:21:50.780Z,100807.47
2019-04-28T17:24:19.416Z,100811.50
2019-04-28T17:26:47.568Z,100810.11
2019-04-28T17:29:15.933Z,100809.34
2019-04-28T17:31:44.071Z,100809.75
2019-04-28T17:34:12.211Z,100810.60
2019-04-28T17:36:40.363Z,100810.60
2019-04-28T17:39:16.345Z,100810.65
2019-04-28T17:41:44.597Z,100814.81
2019-04-28T17:44:13.057Z,100813.33
2019-04-28T17:46:41.407Z,100814.05
2019-04-28T17:49:09.910Z,100822.14
2019-04-28T17:51:38.059Z,100823.56
2019-04-28T17:54:06.299Z,100824.20
2019-04-28T17:56:34.423Z,100822.14
2019-04-28T17:59:02.640Z,100829.86
2019-04-28T18:02:03.185Z,100830.72
2019-04-28T18:04:53.571Z,100839.03
2019-04-28T18:07:26.520Z,100839.25
2019-04-28T18:09:54.648Z,100844.38
2019-04-28T18:12:22.939Z,100851.59
2019-04-28T18:14:52.707Z,100847.51
2019-04-28T18:17:39.842Z,100847.03
2019-04-28T18:20:09.638Z,100856.06
2019-04-28T18:22:37.903Z,100865.09
2019-04-28T18:25:06.361Z,100868.50
2019-04-28T18:27:34.531Z,100877.06
2019-04-28T18:30:02.830Z,100871.83
2019-04-28T18:32:50.005Z,100877.33
2019-04-28T18:35:27.591Z,100875.81
2019-04-28T18:38:34.767Z,100879.62
2019-04-28T18:41:06.029Z,100892.08
2019-04-28T18:43:53.179Z,100893.28
2019-04-28T18:46:26.235Z,100897.56
2019-04-28T18:48:54.415Z,100897.08
2019-04-28T18:51:22.591Z,100899.59
2019-04-28T18:53:50.802Z,100903.91
2019-04-28T18:56:18.983Z,100912.10
2019-04-28T18:58:47.122Z,100914.58
2019-04-28T19:01:32.639Z,100927.98
2019-04-28T19:04:00.816Z,100932.23
2019-04-28T19:06:29.001Z,100932.36
2019-04-28T19:09:02.330Z,100939.10
2019-04-28T19:11:41.376Z,100937.09
2019-04-28T19:14:15.659Z,100942.03
2019-04-28T19:17:14.711Z,100944.08
2019-04-28T19:19:42.905Z,100939.86
2019-04-28T19:22:11.076Z,100947.91
2019-04-28T19:24:39.272Z,100948.11
2019-04-28T19:27:07.487Z,100952.88
2019-04-28T19:29:35.681Z,100953.50
2019-04-28T19:32:04.442Z,100960.97
2019-04-28T19:34:32.604Z,100962.50
2019-04-28T19:37:00.938Z,100966.18
2019-04-28T19:39:29.062Z,100967.86
2019-04-28T19:41:57.396Z,100972.09
2019-04-28T19:44:25.583Z,100980.91
2019-04-28T19:46:53.836Z,100990.05
2019-04-28T19:49:22.104Z,100988.50
2019-04-28T19:51:50.363Z,100994.67
2019-04-28T19:54:20.168Z,100988.96
2019-04-28T19:57:22.678Z,100994.64
2019-04-28T20:00:08.517Z,100999.61
2019-04-28T20:02:36.792Z,100996.98
2019-04-28T20:05:05.379Z,101005.42
2019-04-28T20:07:33.556Z,101004.98
2019-04-28T20:10:01.965Z,101009.14
2019-04-28T20:12:30.284Z,101007.52
2019-04-28T20:14:58.518Z,101004.05
2019-04-28T20:17:27.029Z,101010.13
2019-04-28T20:19:55.230Z,101007.36
2019-04-28T20:22:23.881Z,101008.49
2019-04-28T20:24:52.179Z,101011.83
2019-04-28T20:27:20.313Z,101014.75
2019-04-28T20:29:48.504Z,101016.09
2019-04-28T20:32:17.134Z,101021.97
2019-04-28T20:34:45.280Z,101020.48
2019-04-28T20:37:32.367Z,101023.25
2019-04-28T20:40:05.094Z,101022.47
2019-04-28T20:42:49.781Z,101016.84
2019-04-28T20:45:17.959Z,101023.02
2019-04-28T20:47:46.210Z,101016.64
2019-04-28T20:50:14.509Z,101023.41
2019-04-28T20:52:42.660Z,101022.59
2019-04-28T20:55:10.826Z,101017.39
2019-04-28T20:57:39.156Z,101019.73
2019-04-28T21:00:07.528Z,101022.03
2019-04-28T21:02:35.757Z,101019.41
2019-04-28T21:05:04.350Z,101025.34
2019-04-28T21:07:32.504Z,101025.00
2019-04-28T21:10:00.679Z,101027.27
2019-04-28T21:12:28.816Z,101024.80
2019-04-28T21:14:57.551Z,101033.78
2019-04-28T21:17:25.711Z,101026.72
2019-04-28T21:19:53.855Z,101032.98
2019-04-28T21:22:22.030Z,101030.43
2019-04-28T21:24:50.154Z,101034.54
2019-04-28T21:27:18.307Z,101037.73
2019-04-28T21:29:46.611Z,101035.58
2019-04-28T21:32:14.787Z,101034.34
2019-04-28T21:34:42.923Z,101033.08
2019-04-28T21:37:11.257Z,101042.45
2019-04-28T21:39:39.428Z,101042.55
2019-04-28T21:45:00.923Z,101039.56
2019-04-28T21:47:31.326Z,101044.95
2019-04-28T21:49:59.487Z,101047.66
2019-04-28T21:52:27.699Z,101054.86
2019-04-28T21:54:56.779Z,101051.33
2019-04-28T21:57:24.950Z,101053.16
2019-04-28T21:59:53.041Z,101058.98
2019-04-28T22:02:21.497Z,101058.16
2019-04-28T22:04:49.652Z,101060.86
2019-04-28T22:07:17.835Z,101064.02
2019-04-28T22:09:46.092Z,101058.39
2019-04-28T22:12:14.260Z,100795.94
2019-04-28T22:14:42.614Z,101068.54
2019-04-28T22:17:10.746Z,101065.88
2019-04-28T22:19:38.956Z,101067.28
2019-04-28T22:22:07.085Z,101076.64
2019-04-28T22:24:54.281Z,101074.46
2019-04-28T22:27:27.659Z,101070.53
2019-04-28T22:29:55.862Z,101073.65
2019-04-28T22:32:24.069Z,101078.55
2019-04-28T22:34:52.221Z,101075.04
2019-04-28T22:37:20.609Z,101076.85
2019-04-28T22:39:48.757Z,101076.85
2019-04-28T22:42:16.944Z,101072.89
2019-04-28T22:44:45.103Z,101080.50
2019-04-28T22:47:13.242Z,101075.66
2019-04-28T22:49:41.544Z,101075.66
2019-04-28T22:52:09.668Z,101080.13
2019-04-28T22:54:56.843Z,101079.24
2019-04-28T22:57:43.979Z,101081.48
2019-04-28T23:00:38.621Z,101089.92
2019-04-28T23:03:07.680Z,101087.32
2019-04-28T23:05:35.941Z,101088.22
2019-04-28T23:08:04.059Z,101091.80
2019-04-28T23:10:32.229Z,101094.89
2019-04-28T23:13:00.355Z,101098.00
2019-04-28T23:15:28.548Z,101098.05
2019-04-28T23:17:56.685Z,101095.84
2019-04-28T23:20:27.081Z,101099.86
2019-04-28T23:22:55.256Z,101101.20
2019-04-28T23:25:23.415Z,101101.66
2019-04-28T23:27:51.513Z,101104.33
2019-04-28T23:30:41.584Z,101102.98
2019-04-28T23:33:09.801Z,101103.84
2019-04-28T23:35:37.923Z,101108.33
2019-04-28T23:38:06.267Z,101109.64
2019-04-28T23:40:36.111Z,101109.67
2019-04-28T23:43:07.686Z,101109.68
2019-04-28T23:45:35.851Z,101116.77
2019-04-28T23:48:03.985Z,101120.73
2019-04-28T23:53:14.897Z,101115.89
2019-04-28T23:55:43.053Z,101114.56
2019-04-28T23:58:11.187Z,101117.69
